createdAt,value
2022-09-01T00:01:42.307Z,58.99
2022-09-01T00:04:16.131Z,59.19
2022-09-01T00:06:43.686Z,59.06
2022-09-01T00:09:14.093Z,59.24
2022-09-01T00:11:43.274Z,58.97
2022-09-01T00:14:30.055Z,59.06
2022-09-01T00:17:01.136Z,59.01
2022-09-01T00:19:29.787Z,59.17
2022-09-01T00:21:57.163Z,59.54
2022-09-01T00:24:26.431Z,59.63
2022-09-01T00:26:54.654Z,59.26
2022-09-01T00:29:22.148Z,59.48
2022-09-01T00:31:49.734Z,59.88
2022-09-01T00:34:17.422Z,59.73
2022-09-01T00:36:44.283Z,59.64
2022-09-01T00:39:11.173Z,59.78
2022-09-01T00:41:42.977Z,59.87
2022-09-01T00:44:14.305Z,59.94
2022-09-01T00:46:55.276Z,60.25
2022-09-01T00:49:48.234Z,60.65
2022-09-01T00:52:35.878Z,60.58
2022-09-01T00:55:10.226Z,60.13
2022-09-01T00:57:37.193Z,60.28
2022-09-01T01:00:14.776Z,60.71
2022-09-01T01:02:42.868Z,60.70
2022-09-01T01:05:10.619Z,60.81
2022-09-01T01:07:47.378Z,60.40
2022-09-01T01:10:17.213Z,60.91
2022-09-01T01:12:44.878Z,60.73
2022-09-01T01:15:13.425Z,60.77
2022-09-01T01:17:40.588Z,60.53
2022-09-01T01:20:28.187Z,60.95
2022-09-01T01:23:03.844Z,60.77
2022-09-01T01:25:44.471Z,61.24
2022-09-01T01:28:18.765Z,60.93
2022-09-01T01:30:52.513Z,61.00
2022-09-01T01:33:42.735Z,61.15
2022-09-01T01:36:13.761Z,61.44
2022-09-01T01:38:45.128Z,61.13
2022-09-01T01:41:13.753Z,61.34
2022-09-01T01:43:41.298Z,61.36
2022-09-01T01:46:10.996Z,61.55
2022-09-01T01:48:40.595Z,61.68
2022-09-01T01:51:08.326Z,61.38
2022-09-01T01:53:35.127Z,61.43
2022-09-01T01:56:02.343Z,61.57
2022-09-01T01:58:29.265Z,61.95
2022-09-01T02:00:58.627Z,62.10
2022-09-01T02:03:31.198Z,62.09
2022-09-01T02:05:58.039Z,62.19
2022-09-01T02:08:26.165Z,62.34
2022-09-01T02:10:55.162Z,62.08
2022-09-01T02:13:31.204Z,62.44
2022-09-01T02:16:02.356Z,62.40
2022-09-01T02:18:36.238Z,62.64
2022-09-01T02:21:12.713Z,62.42
2022-09-01T02:23:42.013Z,62.43
2022-09-01T02:26:16.535Z,62.68
2022-09-01T02:28:50.955Z,62.38
2022-09-01T02:31:21.095Z,63.02
2022-09-01T02:33:48.700Z,63.01
2022-09-01T02:36:19.476Z,62.92
2022-09-01T02:38:53.357Z,62.96
2022-09-01T02:41:23.813Z,62.79
2022-09-01T02:43:51.091Z,63.04
2022-09-01T02:46:22.174Z,62.89
2022-09-01T02:48:51.590Z,63.09
2022-09-01T02:51:22.590Z,63.68
2022-09-01T02:53:52.612Z,63.47
2022-09-01T02:56:25.481Z,63.28
2022-09-01T02:58:53.239Z,63.67
2022-09-01T03:01:25.040Z,63.48
2022-09-01T03:03:55.739Z,63.88
2022-09-01T03:06:24.667Z,64.04
2022-09-01T03:08:54.041Z,63.98
2022-09-01T03:11:21.388Z,63.83
2022-09-01T03:13:47.966Z,63.60
2022-09-01T03:16:14.886Z,64.06
2022-09-01T03:18:42.879Z,64.26
2022-09-01T03:21:16.179Z,64.34
2022-09-01T03:23:48.407Z,63.94
2022-09-01T03:26:18.823Z,64.14
2022-09-01T03:28:46.391Z,64.11
2022-09-01T03:31:13.162Z,64.51
2022-09-01T03:33:40.953Z,64.15
2022-09-01T03:36:15.277Z,64.07
2022-09-01T03:38:44.303Z,64.46
2022-09-01T03:41:13.295Z,64.50
2022-09-01T03:43:46.878Z,64.57
2022-09-01T03:46:36.843Z,64.84
2022-09-01T03:49:07.475Z,64.75
2022-09-01T03:51:35.013Z,64.84
2022-09-01T03:54:01.932Z,64.52
2022-09-01T03:56:29.527Z,65.09
2022-09-01T03:58:59.230Z,64.94
2022-09-01T04:01:27.846Z,64.94
2022-09-01T04:03:54.636Z,64.93
2022-09-01T04:06:24.259Z,64.78
2022-09-01T04:09:02.904Z,65.26
2022-09-01T04:11:31.068Z,64.99
2022-09-01T04:13:58.501Z,65.38
2022-09-01T04:16:46.873Z,65.26
2022-09-01T04:19:20.084Z,65.01
2022-09-01T04:21:50.645Z,65.68
2022-09-01T04:24:19.093Z,65.55
2022-09-01T04:26:48.912Z,65.26
2022-09-01T04:29:27.296Z,65.32
2022-09-01T04:31:56.181Z,65.54
2022-09-01T04:34:24.165Z,65.44
2022-09-01T04:36:55.608Z,65.60
2022-09-01T04:39:23.540Z,65.36
2022-09-01T04:41:50.570Z,65.61
2022-09-01T04:44:19.364Z,65.83
2022-09-01T04:46:48.362Z,65.77
2022-09-01T04:49:20.733Z,65.77
2022-09-01T04:51:53.322Z,65.84
2022-09-01T04:54:21.578Z,65.68
2022-09-01T04:56:51.250Z,66.03
2022-09-01T04:59:21.559Z,66.17
2022-09-01T05:01:50.741Z,65.98
2022-09-01T05:04:22.885Z,65.93
2022-09-01T05:06:54.117Z,65.95
2022-09-01T05:09:20.954Z,66.07
2022-09-01T05:11:48.641Z,66.45
2022-09-01T05:14:19.106Z,66.29
2022-09-01T05:16:46.331Z,66.13
2022-09-01T05:19:17.594Z,66.56
2022-09-01T05:21:47.546Z,66.42
2022-09-01T05:24:17.624Z,66.39
2022-09-01T05:26:47.571Z,66.37
2022-09-01T05:29:17.899Z,66.38
2022-09-01T05:31:49.448Z,66.42
2022-09-01T05:34:23.181Z,66.68
2022-09-01T05:36:50.783Z,66.76
2022-09-01T05:39:17.622Z,66.50
2022-09-01T05:41:45.979Z,66.68
2022-09-01T05:44:15.643Z,67.41
2022-09-01T05:46:44.060Z,66.62
2022-09-01T05:49:14.081Z,67.49
2022-09-01T05:51:46.459Z,67.26
2022-09-01T05:54:23.343Z,67.05
2022-09-01T05:56:50.456Z,67.39
2022-09-01T05:59:25.581Z,67.58
2022-09-01T06:01:53.762Z,66.97
2022-09-01T06:04:21.110Z,66.88
2022-09-01T06:07:05.998Z,67.00
2022-09-01T06:09:38.376Z,66.93
2022-09-01T06:12:06.758Z,67.27
2022-09-01T06:14:33.485Z,67.26
2022-09-01T06:17:00.771Z,67.29
2022-09-01T06:19:27.338Z,67.06
2022-09-01T06:21:53.818Z,67.19
2022-09-01T06:24:20.572Z,67.18
2022-09-01T06:26:47.177Z,66.96
2022-09-01T06:29:15.513Z,66.92
2022-09-01T06:31:45.534Z,66.74
2022-09-01T06:34:18.228Z,67.13
2022-09-01T06:36:45.886Z,66.96
2022-09-01T06:39:20.085Z,67.16
2022-09-01T06:41:52.818Z,66.86
2022-09-01T06:44:23.337Z,66.96
2022-09-01T06:46:53.687Z,67.07
2022-09-01T06:49:21.488Z,66.76
2022-09-01T06:51:51.878Z,66.85
2022-09-01T06:54:21.168Z,67.47
2022-09-01T06:56:51.874Z,66.88
2022-09-01T06:59:20.690Z,66.95
2022-09-01T07:01:49.215Z,67.00
2022-09-01T07:04:20.216Z,67.21
2022-09-01T07:07:00.219Z,66.68
2022-09-01T07:09:39.712Z,66.84
2022-09-01T07:12:27.969Z,67.02
2022-09-01T07:17:42.793Z,66.54
2022-09-01T07:20:26.746Z,66.58
2022-09-01T07:23:10.175Z,66.60
2022-09-01T07:26:01.082Z,66.50
2022-09-01T07:28:37.647Z,66.17
2022-09-01T07:33:55.863Z,66.16
2022-09-01T07:47:55.939Z,65.83
2022-09-01T07:50:38.673Z,66.00
2022-09-01T07:53:09.373Z,65.83
2022-09-01T07:55:36.486Z,65.99
2022-09-01T07:58:02.992Z,65.87
2022-09-01T08:00:31.918Z,65.83
2022-09-01T08:02:59.213Z,65.45
2022-09-01T08:05:27.370Z,65.32
2022-09-01T08:07:54.628Z,65.63
2022-09-01T08:10:21.888Z,65.34
2022-09-01T08:12:56.288Z,65.25
2022-09-01T08:15:40.438Z,65.58
2022-09-01T08:18:10.632Z,65.75
2022-09-01T08:20:39.951Z,65.36
2022-09-01T08:23:06.808Z,65.60
2022-09-01T08:25:35.285Z,65.20
2022-09-01T08:28:02.498Z,65.31
2022-09-01T08:30:30.045Z,65.13
2022-09-01T08:32:57.292Z,65.25
2022-09-01T08:35:23.896Z,64.94
2022-09-01T08:37:50.702Z,64.88
2022-09-01T08:40:19.133Z,64.62
2022-09-01T08:43:09.942Z,64.55
2022-09-01T08:45:47.633Z,64.40
2022-09-01T08:49:18.381Z,64.20
2022-09-01T08:51:20.865Z,63.90
2022-09-01T08:53:57.198Z,63.60
2022-09-01T08:56:23.795Z,63.35
2022-09-01T08:58:50.439Z,63.25
2022-09-01T09:01:27.717Z,63.47
2022-09-01T09:04:09.442Z,63.07
2022-09-01T09:06:43.728Z,63.12
2022-09-01T09:09:10.828Z,63.33
2022-09-01T09:11:56.047Z,63.16
2022-09-01T09:14:25.690Z,62.89
2022-09-01T09:16:56.452Z,62.55
2022-09-01T09:19:31.214Z,62.22
2022-09-01T09:21:59.291Z,61.66
2022-09-01T09:24:47.302Z,61.63
2022-09-01T09:27:17.220Z,61.21
2022-09-01T09:29:45.450Z,61.26
2022-09-01T09:35:17.148Z,61.22
2022-09-01T09:37:43.748Z,61.34
2022-09-01T09:40:19.203Z,61.26
2022-09-01T09:42:56.010Z,61.37
2022-09-01T09:45:24.855Z,60.93
2022-09-01T09:47:52.111Z,61.03
2022-09-01T09:50:21.393Z,60.64
2022-09-01T09:52:49.114Z,60.40
2022-09-01T09:55:29.717Z,60.85
2022-09-01T09:57:58.911Z,60.68
2022-09-01T10:00:27.336Z,60.39
2022-09-01T10:03:08.605Z,60.07
2022-09-01T10:05:37.107Z,59.35
2022-09-01T10:08:05.233Z,58.59
2022-09-01T10:10:38.680Z,59.03
2022-09-01T10:13:06.509Z,58.76
2022-09-01T10:15:34.073Z,58.48
2022-09-01T10:18:29.324Z,58.45
2022-09-01T10:21:00.831Z,58.28
2022-09-01T10:23:31.349Z,58.35
2022-09-01T10:26:10.403Z,58.40
2022-09-01T10:28:41.329Z,58.29
2022-09-01T10:31:16.653Z,58.07
2022-09-01T10:33:43.582Z,58.02
2022-09-01T10:36:10.566Z,58.57
2022-09-01T10:38:37.337Z,58.44
2022-09-01T10:41:09.104Z,57.04
2022-09-01T10:43:42.750Z,57.69
2022-09-01T10:46:49.389Z,57.76
2022-09-01T10:49:29.749Z,57.50
2022-09-01T10:52:03.189Z,57.86
2022-09-01T10:54:50.898Z,57.99
2022-09-01T10:57:27.032Z,57.92
2022-09-01T10:59:58.095Z,57.74
2022-09-01T11:02:27.501Z,57.70
2022-09-01T11:04:55.058Z,57.47
2022-09-01T11:07:38.997Z,57.72
2022-09-01T11:10:31.216Z,57.56
2022-09-01T11:13:08.198Z,57.76
2022-09-01T11:15:42.391Z,58.00
2022-09-01T11:18:11.449Z,57.95
2022-09-01T11:20:39.688Z,57.96
2022-09-01T11:23:11.925Z,58.38
2022-09-01T11:25:46.566Z,57.80
2022-09-01T11:28:18.146Z,57.63
2022-09-01T11:30:53.517Z,57.28
2022-09-01T11:33:39.626Z,57.17
2022-09-01T11:36:12.700Z,57.31
2022-09-01T11:38:51.458Z,56.61
2022-09-01T11:41:25.994Z,56.41
2022-09-01T11:43:54.795Z,56.51
2022-09-01T11:46:34.948Z,55.80
2022-09-01T11:49:07.658Z,55.71
2022-09-01T11:51:44.381Z,55.18
2022-09-01T11:54:11.453Z,55.43
2022-09-01T11:56:38.076Z,55.12
2022-09-01T11:59:04.696Z,54.73
2022-09-01T12:01:36.145Z,55.03
2022-09-01T12:04:23.298Z,54.65
2022-09-01T12:06:55.096Z,55.07
2022-09-01T12:09:22.027Z,54.91
2022-09-01T12:11:49.054Z,54.78
2022-09-01T12:14:20.722Z,54.35
2022-09-01T12:16:59.209Z,54.14
2022-09-01T12:19:30.880Z,54.46
2022-09-01T12:22:02.618Z,54.32
2022-09-01T12:24:31.683Z,54.02
2022-09-01T12:26:59.055Z,53.97
2022-09-01T12:29:28.914Z,54.30
2022-09-01T12:31:59.507Z,53.99
2022-09-01T12:34:49.525Z,54.41
2022-09-01T12:37:16.272Z,54.16
2022-09-01T12:39:44.970Z,53.89
2022-09-01T12:42:24.515Z,53.49
2022-09-01T12:44:52.702Z,53.73
2022-09-01T12:47:34.471Z,53.78
2022-09-01T12:50:03.447Z,53.93
2022-09-01T12:52:30.942Z,53.39
2022-09-01T12:55:00.474Z,53.53
2022-09-01T12:57:29.678Z,53.39
2022-09-01T13:00:12.281Z,53.23
2022-09-01T13:02:40.530Z,53.22
2022-09-01T13:05:27.100Z,53.09
2022-09-01T13:07:56.248Z,52.83
2022-09-01T13:10:25.327Z,53.16
2022-09-01T13:12:51.991Z,53.29
2022-09-01T13:15:19.010Z,52.95
2022-09-01T13:17:46.058Z,53.17
2022-09-01T13:20:12.722Z,52.82
2022-09-01T13:22:41.292Z,52.89
2022-09-01T13:25:11.107Z,53.25
2022-09-01T13:27:37.902Z,53.17
2022-09-01T13:30:05.984Z,53.35
2022-09-01T13:32:32.804Z,52.93
2022-09-01T13:34:59.392Z,52.93
2022-09-01T13:37:26.070Z,53.14
2022-09-01T13:39:52.772Z,53.24
2022-09-01T13:42:19.788Z,53.47
2022-09-01T13:44:49.704Z,53.52
2022-09-01T13:47:35.198Z,53.47
2022-09-01T13:50:11.349Z,53.46
2022-09-01T13:52:40.327Z,53.57
2022-09-01T13:55:07.769Z,53.37
2022-09-01T13:57:36.082Z,53.76
2022-09-01T14:00:04.741Z,53.14
2022-09-01T14:02:31.298Z,52.97
2022-09-01T14:04:57.819Z,52.98
2022-09-01T14:07:24.533Z,53.16
2022-09-01T14:09:51.119Z,53.19
2022-09-01T14:12:17.681Z,52.56
2022-09-01T14:17:30.917Z,52.91
2022-09-01T14:19:57.574Z,52.55
2022-09-01T14:22:24.051Z,52.72
2022-09-01T14:24:50.644Z,52.75
2022-09-01T14:27:17.274Z,52.97
2022-09-01T14:32:09.433Z,52.78
2022-09-01T14:34:37.441Z,51.79
2022-09-01T14:37:04.156Z,52.58
2022-09-01T14:39:30.955Z,52.24
2022-09-01T14:41:57.536Z,52.07
2022-09-01T14:44:24.141Z,52.33
2022-09-01T14:46:50.827Z,52.20
2022-09-01T14:49:22.517Z,52.51
2022-09-01T14:54:37.092Z,52.14
2022-09-01T14:59:51.006Z,51.99
2022-09-01T15:02:19.749Z,52.14
2022-09-01T15:04:46.737Z,50.99
2022-09-01T15:07:13.548Z,52.10
2022-09-01T15:09:40.078Z,51.50
2022-09-01T15:12:06.719Z,52.13
2022-09-01T15:14:33.661Z,51.77
2022-09-01T15:17:00.634Z,51.47
2022-09-01T15:19:27.222Z,51.29
2022-09-01T15:21:53.894Z,51.71
2022-09-01T15:24:21.265Z,50.96
2022-09-01T15:26:47.798Z,51.42
2022-09-01T15:29:15.334Z,51.90
2022-09-01T15:31:43.061Z,51.33
2022-09-01T15:34:10.287Z,51.20
2022-09-01T15:36:40.113Z,51.41
2022-09-01T15:39:08.077Z,51.09
2022-09-01T15:41:35.152Z,51.54
2022-09-01T15:44:03.338Z,50.42
2022-09-01T15:46:33.769Z,50.28
2022-09-01T15:49:01.544Z,50.42
2022-09-01T15:51:39.317Z,50.43
2022-09-01T15:54:07.737Z,49.89
2022-09-01T15:56:34.378Z,48.62
2022-09-01T15:59:02.317Z,49.38
2022-09-01T16:01:30.438Z,49.89
2022-09-01T16:03:57.375Z,48.83
2022-09-01T16:06:24.479Z,48.62
2022-09-01T16:08:54.282Z,48.33
2022-09-01T16:11:24.150Z,49.71
2022-09-01T16:13:54.049Z,49.86
2022-09-01T16:16:40.954Z,50.54
2022-09-01T16:19:16.065Z,50.39
2022-09-01T16:21:52.977Z,50.39
2022-09-01T16:24:19.822Z,50.88
2022-09-01T16:26:48.328Z,50.83
2022-09-01T16:29:35.723Z,50.64
2022-09-01T16:32:02.447Z,50.42
2022-09-01T16:34:32.060Z,51.09
2022-09-01T16:37:10.538Z,51.33
2022-09-01T16:39:48.178Z,51.42
2022-09-01T16:42:21.227Z,51.21
2022-09-01T16:44:58.066Z,51.11
2022-09-01T16:47:36.693Z,51.35
2022-09-01T16:50:16.211Z,51.91
2022-09-01T16:52:43.032Z,51.98
2022-09-01T16:55:18.507Z,51.76
2022-09-01T16:58:03.733Z,51.92
2022-09-01T17:00:38.570Z,52.43
2022-09-01T17:03:17.225Z,52.33
2022-09-01T17:06:01.933Z,52.44
2022-09-01T17:08:31.257Z,52.10
2022-09-01T17:11:09.741Z,52.47
2022-09-01T17:13:38.491Z,52.31
2022-09-01T17:16:08.422Z,52.45
2022-09-01T17:18:40.517Z,52.33
2022-09-01T17:21:10.836Z,52.26
2022-09-01T17:23:40.907Z,52.36
2022-09-01T17:26:12.882Z,52.47
2022-09-01T17:28:44.294Z,52.23
2022-09-01T17:31:14.646Z,52.81
2022-09-01T17:33:47.300Z,52.73
2022-09-01T17:36:31.148Z,52.60
2022-09-01T17:39:03.926Z,52.69
2022-09-01T17:41:36.751Z,52.69
2022-09-01T17:44:07.207Z,53.04
2022-09-01T17:46:34.334Z,52.93
2022-09-01T17:49:14.571Z,52.85
2022-09-01T17:51:47.060Z,52.44
2022-09-01T17:54:42.989Z,53.04
2022-09-01T17:57:20.945Z,53.00
2022-09-01T17:59:54.162Z,53.14
2022-09-01T18:02:33.140Z,52.94
2022-09-01T18:05:11.957Z,52.92
2022-09-01T18:07:44.382Z,53.16
2022-09-01T18:10:15.832Z,53.18
2022-09-01T18:12:43.872Z,53.25
2022-09-01T18:15:15.074Z,53.38
2022-09-01T18:17:44.714Z,53.46
2022-09-01T18:20:24.560Z,53.41
2022-09-01T18:22:51.165Z,53.32
2022-09-01T18:25:19.698Z,53.22
2022-09-01T18:27:46.741Z,53.23
2022-09-01T18:30:19.138Z,53.16
2022-09-01T18:32:55.694Z,53.31
2022-09-01T18:35:42.505Z,53.08
2022-09-01T18:38:31.706Z,53.29
2022-09-01T18:41:07.145Z,53.31
2022-09-01T18:43:37.466Z,53.25
2022-09-01T18:46:12.995Z,53.40
2022-09-01T18:48:52.075Z,53.44
2022-09-01T18:51:31.936Z,53.51
2022-09-01T18:54:22.157Z,53.43
2022-09-01T18:57:05.516Z,53.61
2022-09-01T18:59:55.326Z,53.71
2022-09-01T19:02:30.769Z,53.68
2022-09-01T19:04:58.877Z,53.70
2022-09-01T19:07:54.675Z,53.69
2022-09-01T19:10:24.615Z,53.77
2022-09-01T19:13:03.502Z,53.71
2022-09-01T19:15:34.120Z,54.11
2022-09-01T19:18:09.587Z,53.99
2022-09-01T19:20:48.694Z,54.04
2022-09-01T19:23:36.115Z,54.23
2022-09-01T19:26:05.691Z,54.36
2022-09-01T19:28:32.250Z,54.36
2022-09-01T19:31:18.062Z,54.52
2022-09-01T19:33:48.523Z,54.80
2022-09-01T19:36:18.901Z,54.72
2022-09-01T19:38:45.785Z,54.70
2022-09-01T19:41:24.758Z,54.70
2022-09-01T19:43:54.845Z,54.94
2022-09-01T19:46:43.020Z,55.03
2022-09-01T19:49:16.560Z,54.89
2022-09-01T19:51:49.199Z,55.07
2022-09-01T19:54:24.292Z,55.02
2022-09-01T19:57:01.575Z,55.25
2022-09-01T19:59:39.344Z,55.29
2022-09-01T20:02:10.259Z,55.27
2022-09-01T20:04:42.572Z,55.20
2022-09-01T20:07:14.340Z,55.16
2022-09-01T20:09:46.418Z,55.57
2022-09-01T20:12:13.057Z,55.42
2022-09-01T20:15:01.159Z,55.62
2022-09-01T20:17:30.506Z,55.25
2022-09-01T20:20:00.477Z,55.53
2022-09-01T20:22:33.533Z,55.71
2022-09-01T20:25:08.447Z,55.57
2022-09-01T20:27:38.539Z,55.84
2022-09-01T20:30:06.928Z,55.47
2022-09-01T20:32:53.367Z,55.68
2022-09-01T20:35:28.790Z,55.83
2022-09-01T20:37:59.130Z,55.66
2022-09-01T20:40:27.533Z,55.83
2022-09-01T20:42:54.263Z,56.03
2022-09-01T20:45:22.858Z,55.91
2022-09-01T20:48:12.942Z,55.61
2022-09-01T20:50:43.396Z,55.99
2022-09-01T20:53:18.607Z,55.68
2022-09-01T20:55:53.997Z,56.01
2022-09-01T20:58:23.289Z,55.91
2022-09-01T21:01:23.139Z,55.97
2022-09-01T21:04:04.300Z,56.01
2022-09-01T21:06:49.815Z,56.02
2022-09-01T21:09:39.272Z,56.36
2022-09-01T21:12:05.887Z,56.47
2022-09-01T21:14:49.905Z,56.42
2022-09-01T21:17:17.421Z,56.66
2022-09-01T21:19:54.171Z,56.54
2022-09-01T21:22:22.458Z,56.74
2022-09-01T21:24:49.180Z,56.65
2022-09-01T21:27:18.222Z,56.60
2022-09-01T21:29:47.670Z,56.75
2022-09-01T21:32:15.992Z,56.80
2022-09-01T21:34:43.863Z,56.93
2022-09-01T21:37:10.614Z,56.79
2022-09-01T21:39:37.666Z,56.84
2022-09-01T21:42:06.184Z,56.92
2022-09-01T21:44:33.341Z,57.24
2022-09-01T21:47:00.286Z,56.95
2022-09-01T21:49:27.020Z,57.11
2022-09-01T21:51:55.729Z,57.28
2022-09-01T21:54:22.252Z,57.05
2022-09-01T21:56:48.915Z,57.13
2022-09-01T21:59:17.208Z,57.26
2022-09-01T22:01:44.250Z,56.98
2022-09-01T22:04:10.937Z,57.49
2022-09-01T22:06:38.278Z,57.09
2022-09-01T22:09:07.657Z,57.23
2022-09-01T22:11:48.382Z,57.13
2022-09-01T22:14:15.507Z,57.27
2022-09-01T22:16:42.684Z,57.49
2022-09-01T22:19:09.510Z,57.76
2022-09-01T22:21:36.590Z,57.93
2022-09-01T22:24:03.739Z,58.18
2022-09-01T22:26:32.082Z,58.94
2022-09-01T22:28:59.908Z,58.64
2022-09-01T22:31:27.037Z,59.10
2022-09-01T22:33:54.285Z,59.68
2022-09-01T22:36:22.719Z,59.20
2022-09-01T22:38:49.907Z,59.60
2022-09-01T22:41:20.696Z,59.93
2022-09-01T22:43:47.446Z,60.31
2022-09-01T22:46:15.024Z,60.27
2022-09-01T22:48:41.952Z,60.84
2022-09-01T22:51:09.096Z,60.79
2022-09-01T22:53:36.650Z,60.28
2022-09-01T22:56:09.273Z,60.53
2022-09-01T22:58:35.960Z,60.36
2022-09-01T23:01:02.920Z,60.22
2022-09-01T23:03:29.917Z,60.16
2022-09-01T23:06:05.347Z,60.89
2022-09-01T23:08:32.153Z,60.96
2022-09-01T23:10:58.697Z,60.67
2022-09-01T23:13:28.344Z,60.79
2022-09-01T23:15:56.522Z,60.68
2022-09-01T23:18:23.613Z,60.84
2022-09-01T23:20:50.346Z,60.75
2022-09-01T23:23:17.311Z,60.89
2022-09-01T23:25:44.234Z,61.14
2022-09-01T23:28:11.777Z,60.82
2022-09-01T23:30:40.672Z,60.75
2022-09-01T23:33:07.224Z,60.83
2022-09-01T23:35:33.854Z,60.74
2022-09-01T23:38:00.566Z,61.58
2022-09-01T23:40:27.159Z,61.47
2022-09-01T23:42:53.711Z,61.47
2022-09-01T23:45:20.574Z,61.43
2022-09-01T23:47:47.096Z,61.49
2022-09-01T23:50:13.649Z,61.23
2022-09-01T23:52:40.301Z,61.23
2022-09-01T23:55:07.960Z,61.38
2022-09-01T23:57:34.951Z,61.17
